Time;durP1;ratioP1;P1;durP2;ratioP2;P2;SDS_P1;SDS_P2;PMS_P1;PMS_P2;Temp;Humidity;BMP_temperature;BMP_pressure;BME280_temperature;BME280_humidity;BME280_pressure;Samples;Min_cycle;Max_cycle;Signal;HPM_P1;HPM_P2
2022/05/04 00:01:00;;;;;;;7.30;4.18;;;8.80;99.90;;;;;;21163051;28;20028;-72
2022/05/04 00:11:01;;;;;;;5.17;4.10;;;8.90;99.90;;;;;;21162156;28;20097;-72
2022/05/04 00:21:02;;;;;;;6.05;4.20;;;8.70;99.90;;;;;;21161613;28;20036;-72
2022/05/04 00:31:03;;;;;;;5.90;4.00;;;8.70;99.90;;;;;;21160292;28;20039;-72
2022/05/04 00:41:04;;;;;;;5.20;3.70;;;8.90;99.90;;;;;;21158768;28;20043;-72
2022/05/04 00:51:05;;;;;;;5.97;3.40;;;8.90;99.90;;;;;;21159576;28;20035;-72
2022/05/04 01:01:06;;;;;;;5.67;3.57;;;8.70;99.90;;;;;;21158898;28;20026;-72
2022/05/04 01:11:07;;;;;;;;;;;8.40;99.90;;;;;;21159072;28;20024;-72
2022/05/04 01:21:08;;;;;;;6.75;4.10;;;8.00;99.90;;;;;;21158079;28;19912;-72
2022/05/04 01:31:09;;;;;;;6.53;4.37;;;7.90;99.90;;;;;;21157371;28;20496;-72
2022/05/04 01:42:02;;;;;;;6.55;4.20;;;7.90;99.90;;;;;;21167751;28;20032;-72
2022/05/04 01:51:30;;;;;;;7.47;4.05;;;7.80;99.90;;;;;;21173460;28;20046;-72
2022/05/04 02:01:31;;;;;;;5.83;4.40;;;7.80;99.90;;;;;;21172701;28;20055;-72
2022/05/04 02:11:34;;;;;;;9.30;4.63;;;7.60;99.90;;;;;;21172208;28;20409;-71
2022/05/04 02:21:35;;;;;;;7.68;4.22;;;7.50;99.90;;;;;;21171931;28;20457;-72
2022/05/04 02:31:36;;;;;;;6.33;4.30;;;7.40;99.90;;;;;;21169794;28;20074;-71
2022/05/04 02:41:36;;;;;;;6.33;4.50;;;7.30;99.90;;;;;;21169871;28;20428;-72
2022/05/04 02:51:37;;;;;;;6.33;4.27;;;7.20;99.90;;;;;;21166962;28;20039;-72
2022/05/04 03:12:06;;;;;;;8.52;4.78;;;7.10;99.90;;;;;;21167262;28;20034;-72
2022/05/04 03:22:07;;;;;;;;;;;6.80;99.90;;;;;;21080896;28;20043;-72
2022/05/04 03:32:09;;;;;;;8.95;4.50;;;6.80;99.90;;;;;;21052988;28;20381;-72
2022/05/04 03:42:12;;;;;;;7.80;4.47;;;6.80;99.90;;;;;;21090975;28;20397;-72
2022/05/04 03:52:12;;;;;;;6.35;4.20;;;6.70;99.90;;;;;;21077235;28;20084;-72
2022/05/04 04:02:13;;;;;;;6.43;3.93;;;6.50;99.90;;;;;;21078476;28;20051;-72
2022/05/04 04:12:14;;;;;;;6.10;4.27;;;6.70;99.90;;;;;;21078194;28;20032;-71
2022/05/04 04:22:15;;;;;;;6.13;4.47;;;6.60;99.90;;;;;;21077243;28;20036;-71
2022/05/04 04:32:16;;;;;;;10.87;5.17;;;6.80;99.90;;;;;;21064701;28;20082;-71
2022/05/04 04:42:16;;;;;;;9.10;4.43;;;7.00;99.90;;;;;;21067108;28;20052;-71
2022/05/04 04:52:17;;;;;;;7.53;4.97;;;7.00;99.90;;;;;;21019549;28;20036;-71
2022/05/04 05:02:18;;;;;;;11.97;7.03;;;7.20;99.90;;;;;;21027733;28;20400;-71
2022/05/04 05:12:21;;;;;;;12.97;7.73;;;7.50;99.90;;;;;;21008791;28;20103;-71
2022/05/04 05:22:22;;;;;;;18.05;7.25;;;8.00;99.90;;;;;;21162398;22;20050;-78
2022/05/04 05:32:25;;;;;;;12.80;7.82;;;8.80;99.90;;;;;;21178637;28;20071;-79
2022/05/04 05:42:28;;;;;;;12.50;8.23;;;8.90;99.90;;;;;;21179500;28;20038;-78
2022/05/04 05:52:29;;;;;;;12.60;7.80;;;8.80;99.90;;;;;;21179063;28;20081;-78
2022/05/04 06:02:30;;;;;;;15.80;9.37;;;8.70;99.90;;;;;;21178949;28;20055;-78
2022/05/04 06:12:30;;;;;;;11.73;7.97;;;9.00;99.90;;;;;;21179661;28;20031;-78
2022/05/04 06:22:31;;;;;;;14.30;7.83;;;9.60;99.90;;;;;;21184703;28;20027;-78
2022/05/04 06:42:52;;;;;;;11.38;6.68;;;10.80;99.90;;;;;;21190245;28;20530;-78
2022/05/04 06:52:53;;;;;;;13.30;6.50;;;11.40;99.90;;;;;;21188992;28;20039;-78
2022/05/04 07:02:54;;;;;;;12.80;8.17;;;12.10;99.90;;;;;;21187123;28;20023;-78
2022/05/04 07:12:55;;;;;;;15.97;8.63;;;12.70;99.90;;;;;;21184194;28;20039;-77
2022/05/04 07:22:56;;;;;;;12.97;7.80;;;13.50;99.90;;;;;;21183339;28;20430;-78
2022/05/04 07:32:57;;;;;;;11.73;6.80;;;14.70;99.90;;;;;;21182087;28;20292;-77
2022/05/04 07:42:57;;;;;;;9.30;6.77;;;15.50;99.90;;;;;;21181383;28;20039;-78
2022/05/04 07:52:59;;;;;;;12.67;7.50;;;14.60;99.90;;;;;;21181611;28;20027;-77
2022/05/04 08:13:20;;;;;;;7.30;5.50;;;17.30;99.90;;;;;;21055079;28;20039;-79
2022/05/04 08:23:20;;;;;;;10.03;5.03;;;16.60;99.90;;;;;;21057173;28;20371;-78
2022/05/04 08:33:21;;;;;;;13.73;5.90;;;15.30;99.90;;;;;;21052469;28;20028;-79
2022/05/04 08:43:26;;;;;;;9.23;5.57;;;16.60;99.90;;;;;;21044527;28;20024;-79
2022/05/04 08:53:27;;;;;;;6.72;5.28;;;17.80;99.90;;;;;;21039822;28;20028;-78
2022/05/04 09:03:29;;;;;;;6.40;5.10;;;18.50;99.90;;;;;;21036882;28;20024;-78
2022/05/04 09:13:29;;;;;;;9.35;4.53;;;17.80;99.90;;;;;;21038801;28;20032;-78
2022/05/04 09:23:32;;;;;;;12.17;4.83;;;18.90;99.90;;;;;;21023563;28;20398;-79
2022/05/04 09:33:37;;;;;;;4.50;3.78;;;18.90;99.90;;;;;;21032032;28;20021;-77
2022/05/04 09:54:13;;;;;;;3.70;2.53;;;19.40;99.90;;;;;;21041668;28;20032;-77
2022/05/04 10:04:15;;;;;;;5.93;2.38;;;20.00;99.90;;;;;;21057127;28;20126;-77
2022/05/04 10:14:16;;;;;;;3.28;2.25;;;20.60;99.90;;;;;;21090434;28;20127;-77
2022/05/04 10:24:19;;;;;;;2.93;2.03;;;20.60;99.90;;;;;;21089705;28;20056;-77
2022/05/04 10:34:20;;;;;;;3.30;1.85;;;21.30;99.90;;;;;;21087941;28;20035;-77
2022/05/04 10:44:50;;;;;;;4.80;1.87;;;21.90;99.90;;;;;;21090447;28;20028;-78
2022/05/04 10:54:51;;;;;;;2.75;1.70;;;22.60;99.90;;;;;;21040081;28;20306;-77
2022/05/04 11:04:54;;;;;;;3.72;1.75;;;22.80;99.90;;;;;;21020823;28;20085;-78
2022/05/04 11:14:54;;;;;;;4.15;1.98;;;23.10;99.90;;;;;;21025418;22;20031;-74
2022/05/04 11:24:58;;;;;;;4.33;2.60;;;20.30;99.90;;;;;;21093970;28;20063;-74
2022/05/04 11:34:59;;;;;;;6.20;2.42;;;17.10;99.90;;;;;;20997946;28;20043;-73
2022/05/04 11:45:00;;;;;;;3.53;2.10;;;17.00;99.90;;;;;;20980383;28;20372;-74
2022/05/04 11:55:02;;;;;;;3.83;2.27;;;17.10;99.90;;;;;;20996378;28;20081;-74
2022/05/04 12:05:03;;;;;;;3.30;2.00;;;17.50;99.90;;;;;;20995370;28;20036;-74
2022/05/04 12:15:06;;;;;;;2.00;1.50;;;18.10;99.90;;;;;;20994453;28;20051;-73
2022/05/04 12:25:08;;;;;;;4.13;1.70;;;18.70;99.90;;;;;;20993115;28;20447;-73
2022/05/04 12:35:09;;;;;;;2.28;1.50;;;18.90;99.90;;;;;;20993095;28;20024;-74
2022/05/04 12:45:17;;;;;;;2.70;1.58;;;19.30;99.90;;;;;;20992318;28;20047;-74
2022/05/04 12:55:18;;;;;;;1.92;1.42;;;20.80;99.90;;;;;;20991867;28;20032;-74
2022/05/04 13:05:19;;;;;;;1.40;1.30;;;20.10;99.90;;;;;;20973152;28;20024;-74
2022/05/04 13:15:20;;;;;;;2.38;1.40;;;21.50;99.90;;;;;;20990703;28;20028;-75
2022/05/04 13:25:21;;;;;;;2.27;1.50;;;22.40;99.90;;;;;;20988995;28;20028;-74
2022/05/04 13:35:22;;;;;;;5.37;1.90;;;20.70;99.90;;;;;;21002549;28;20032;-74
2022/05/04 13:45:23;;;;;;;3.97;1.60;;;20.60;99.90;;;;;;21007540;28;20032;-72
2022/05/04 13:55:24;;;;;;;5.23;2.87;;;21.70;99.90;;;;;;20978435;28;20487;-72
2022/05/04 14:05:25;;;;;;;2.50;1.93;;;21.80;99.90;;;;;;20985580;28;20044;-74
2022/05/04 14:15:27;;;;;;;5.20;2.47;;;20.20;99.90;;;;;;20965895;28;20054;-73
2022/05/04 14:25:28;;;;;;;4.40;2.65;;;19.50;99.90;;;;;;20984516;28;20039;-74
2022/05/04 14:35:29;;;;;;;4.87;3.00;;;19.20;99.90;;;;;;20982701;28;20040;-74
2022/05/04 14:45:29;;;;;;;3.30;2.47;;;18.30;99.90;;;;;;20980972;28;20040;-74
2022/05/04 14:55:31;;;;;;;3.70;2.90;;;18.10;99.90;;;;;;20981390;28;20039;-74
2022/05/04 15:05:31;;;;;;;3.70;3.00;;;18.30;99.90;;;;;;20980516;28;20894;-73
2022/05/04 15:15:33;;;;;;;3.83;2.60;;;18.00;99.90;;;;;;20979639;28;20043;-74
2022/05/04 15:25:34;;;;;;;6.23;2.27;;;17.80;99.90;;;;;;20969507;28;20037;-74
2022/05/04 15:35:35;;;;;;;6.40;1.93;;;18.90;99.90;;;;;;20914134;28;20029;-73
2022/05/04 15:45:36;;;;;;;3.90;2.00;;;19.00;99.90;;;;;;20960830;28;20032;-74
2022/05/04 15:55:37;;;;;;;4.20;1.60;;;19.30;99.90;;;;;;20974933;28;20041;-74
2022/05/04 16:05:38;;;;;;;4.50;1.80;;;19.00;99.90;;;;;;20975987;28;20439;-74
2022/05/04 16:15:39;;;;;;;3.00;1.90;;;18.70;99.90;;;;;;20973978;28;20079;-74
2022/05/04 16:25:40;;;;;;;4.37;2.43;;;18.90;99.90;;;;;;20972208;28;20510;-73
2022/05/04 16:35:43;;;;;;;2.73;2.17;;;19.00;99.90;;;;;;20973291;28;20491;-74
2022/05/04 16:45:44;;;;;;;2.65;1.98;;;18.90;99.90;;;;;;20939971;28;20042;-74
2022/05/04 16:55:44;;;;;;;2.33;1.90;;;18.70;99.90;;;;;;20972563;28;20033;-73
2022/05/04 17:05:45;;;;;;;5.93;1.93;;;18.80;99.90;;;;;;20970967;28;20028;-73
2022/05/04 17:15:46;;;;;;;6.07;2.20;;;18.50;99.90;;;;;;21030001;22;20038;-75
2022/05/04 17:25:48;;;;;;;2.63;1.70;;;18.40;99.90;;;;;;21208181;27;20039;-77
2022/05/04 17:46:09;;;;;;;4.00;1.60;;;17.70;99.90;;;;;;21212708;27;20049;-78
2022/05/04 17:56:10;;;;;;;2.83;1.90;;;16.90;99.90;;;;;;21230417;27;20054;-77
2022/05/04 18:06:16;;;;;;;9.00;3.13;;;16.60;99.90;;;;;;21211442;27;20031;-78
2022/05/04 18:16:17;;;;;;;3.60;2.30;;;15.50;99.90;;;;;;21220942;27;20034;-77
2022/05/04 18:26:17;;;;;;;6.23;2.43;;;15.50;99.90;;;;;;21242542;27;20094;-78
2022/05/04 18:36:30;;;;;;;5.43;2.80;;;14.90;99.90;;;;;;21264277;27;20035;-78
2022/05/04 18:46:31;;;;;;;4.38;2.33;;;14.60;99.90;;;;;;21278097;27;20027;-79
2022/05/04 18:56:36;;;;;;;3.63;2.73;;;14.70;99.90;;;;;;21266149;27;20023;-78
2022/05/04 19:06:37;;;;;;;5.53;2.65;;;14.70;99.90;;;;;;21256090;27;20072;-77
2022/05/04 19:16:38;;;;;;;6.40;2.47;;;14.00;99.90;;;;;;21242376;27;20047;-77
2022/05/04 19:26:39;;;;;;;3.33;2.67;;;13.90;99.90;;;;;;21167781;28;20106;-77
2022/05/04 19:36:40;;;;;;;7.97;4.70;;;13.80;99.90;;;;;;21168364;28;20031;-77
2022/05/04 19:46:43;;;;;;;10.50;4.90;;;13.50;99.90;;;;;;21171954;28;20037;-77
2022/05/04 19:56:44;;;;;;;8.40;4.32;;;13.30;99.90;;;;;;21165551;28;20035;-77
2022/05/04 20:06:45;;;;;;;6.23;4.13;;;13.20;99.90;;;;;;21165798;28;20115;-77
2022/05/04 20:16:46;;;;;;;9.60;4.67;;;13.20;99.90;;;;;;21182073;27;20285;-77
2022/05/04 20:26:47;;;;;;;8.17;4.80;;;13.10;99.90;;;;;;21247396;27;20031;-77
2022/05/04 20:36:48;;;;;;;5.67;4.20;;;13.10;99.90;;;;;;21246581;27;20038;-77
2022/05/04 20:46:49;;;;;;;6.30;4.73;;;13.10;99.90;;;;;;21245066;27;20027;-77
2022/05/04 20:56:49;;;;;;;5.17;4.20;;;13.20;99.90;;;;;;21245236;27;20047;-76
2022/05/04 21:06:51;;;;;;;7.50;4.50;;;13.20;99.90;;;;;;21228345;27;20037;-76
2022/05/04 21:16:52;;;;;;;6.13;4.00;;;13.00;99.90;;;;;;21208269;27;20039;-76
2022/05/04 21:26:52;;;;;;;7.20;4.87;;;12.90;99.90;;;;;;21218788;27;20050;-76
2022/05/04 21:36:56;;;;;;;5.83;3.97;;;12.10;99.90;;;;;;21205816;28;20127;-77
2022/05/04 21:46:58;;;;;;;6.70;3.97;;;12.40;99.90;;;;;;21232623;27;20062;-77
2022/05/04 21:56:59;;;;;;;6.13;3.92;;;12.30;99.90;;;;;;21222266;27;20042;-81
2022/05/04 22:07:00;;;;;;;3.90;3.33;;;12.10;99.90;;;;;;21270651;27;20876;-80
2022/05/04 22:17:01;;;;;;;6.03;3.80;;;12.30;99.90;;;;;;21282433;27;20059;-80
2022/05/04 22:27:02;;;;;;;7.83;4.63;;;12.30;99.90;;;;;;21293333;27;20038;-80
2022/05/04 22:37:03;;;;;;;5.40;4.23;;;12.30;99.90;;;;;;21297918;27;20031;-80
2022/05/04 22:47:04;;;;;;;6.53;4.60;;;12.40;99.90;;;;;;21273671;27;20027;-81
2022/05/04 22:57:05;;;;;;;5.63;4.40;;;12.40;99.90;;;;;;21288795;27;20027;-80
2022/05/04 23:07:06;;;;;;;6.18;4.28;;;12.30;99.90;;;;;;21287142;27;20039;-80
2022/05/04 23:17:07;;;;;;;6.73;3.73;;;12.30;99.90;;;;;;21288078;27;20095;-80
2022/05/04 23:27:09;;;;;;;4.77;3.97;;;12.30;99.90;;;;;;21298795;27;20027;-80
2022/05/04 23:37:29;;;;;;;9.25;4.80;;;12.30;99.90;;;;;;21294725;27;20062;-81
2022/05/04 23:47:30;;;;;;;6.10;4.60;;;12.10;99.90;;;;;;21300504;27;20035;-81
2022/05/04 23:57:31;;;;;;;8.40;5.17;;;11.60;99.90;;;;;;21303915;27;20041;-79
